createdAt,value
2022-08-17T00:01:52.853Z,16.20
2022-08-17T00:04:23.098Z,14.10
2022-08-17T00:06:53.428Z,15.90
2022-08-17T00:09:22.821Z,15.18
2022-08-17T00:12:41.113Z,14.25
2022-08-17T00:14:41.887Z,14.70
2022-08-17T00:17:11.266Z,15.30
2022-08-17T00:19:40.635Z,13.95
2022-08-17T00:22:31.637Z,15.13
2022-08-17T00:24:59.432Z,14.48
2022-08-17T00:27:28.862Z,15.75
2022-08-17T00:29:58.165Z,15.45
2022-08-17T00:33:13.639Z,16.65
2022-08-17T00:35:20.372Z,17.27
2022-08-17T00:37:49.725Z,16.77
2022-08-17T00:40:19.639Z,15.93
2022-08-17T00:42:50.596Z,15.73
2022-08-17T00:45:21.198Z,14.80
2022-08-17T00:47:50.907Z,16.77
2022-08-17T00:50:21.847Z,15.23
2022-08-17T00:52:57.112Z,15.48
2022-08-17T00:55:28.563Z,14.43
2022-08-17T00:58:01.194Z,15.35
2022-08-17T01:00:35.633Z,15.70
2022-08-17T01:03:16.829Z,16.88
2022-08-17T01:05:46.301Z,15.93
2022-08-17T01:08:19.736Z,16.10
2022-08-17T01:10:59.138Z,17.02
2022-08-17T01:13:40.738Z,17.17
2022-08-17T01:16:18.670Z,16.95
2022-08-17T01:18:52.093Z,17.10
2022-08-17T01:21:25.389Z,17.42
2022-08-17T01:23:54.744Z,16.27
2022-08-17T01:26:24.645Z,16.63
2022-08-17T01:28:56.001Z,16.15
2022-08-17T01:31:28.250Z,15.95
2022-08-17T01:33:58.674Z,16.50
2022-08-17T01:36:31.189Z,17.27
2022-08-17T01:39:00.855Z,16.67
2022-08-17T01:41:31.231Z,16.05
2022-08-17T01:44:05.788Z,16.83
2022-08-17T01:46:38.416Z,17.08
2022-08-17T01:49:14.426Z,16.60
2022-08-17T01:51:43.756Z,16.23
2022-08-17T01:54:17.714Z,17.42
2022-08-17T01:56:53.774Z,17.60
2022-08-17T01:59:23.537Z,19.02
2022-08-17T02:01:53.353Z,18.92
2022-08-17T02:04:22.936Z,16.73
2022-08-17T02:06:53.178Z,17.95
2022-08-17T02:09:29.986Z,17.58
2022-08-17T02:12:38.324Z,18.77
2022-08-17T02:14:53.325Z,18.05
2022-08-17T02:17:22.688Z,17.80
2022-08-17T02:19:52.009Z,17.70
2022-08-17T02:22:21.585Z,17.90
2022-08-17T02:24:58.428Z,17.45
2022-08-17T02:27:28.661Z,17.48
2022-08-17T02:29:58.075Z,18.95
2022-08-17T02:32:28.870Z,17.85
2022-08-17T02:35:02.223Z,15.77
2022-08-17T02:37:32.542Z,17.45
2022-08-17T02:40:02.563Z,18.63
2022-08-17T02:42:35.351Z,17.65
2022-08-17T02:45:07.073Z,17.65
2022-08-17T02:47:37.610Z,20.33
2022-08-17T02:50:09.557Z,19.05
2022-08-17T02:52:44.160Z,17.95
2022-08-17T02:55:26.975Z,17.70
2022-08-17T02:57:56.756Z,17.38
2022-08-17T03:00:34.021Z,17.58
2022-08-17T03:03:05.145Z,17.13
2022-08-17T03:05:37.872Z,17.50
2022-08-17T03:08:12.940Z,16.13
2022-08-17T03:10:42.963Z,17.88
2022-08-17T03:13:14.408Z,17.48
2022-08-17T03:15:45.734Z,17.58
2022-08-17T03:18:19.260Z,16.03
2022-08-17T03:20:54.218Z,15.93
2022-08-17T03:23:25.586Z,16.35
2022-08-17T03:25:56.285Z,16.63
2022-08-17T03:28:26.271Z,17.58
2022-08-17T03:30:55.808Z,17.27
2022-08-17T03:33:25.649Z,16.75
2022-08-17T03:35:55.288Z,16.05
2022-08-17T03:38:24.864Z,15.82
2022-08-17T03:40:59.787Z,16.95
2022-08-17T03:43:35.149Z,15.68
2022-08-17T03:46:32.451Z,15.82
2022-08-17T03:49:20.867Z,15.90
2022-08-17T03:52:02.855Z,14.88
2022-08-17T03:54:44.696Z,15.80
2022-08-17T03:57:14.848Z,17.17
2022-08-17T03:59:44.946Z,16.60
2022-08-17T04:02:21.449Z,15.63
2022-08-17T04:04:52.852Z,15.02
2022-08-17T04:07:27.867Z,15.32
2022-08-17T04:09:58.183Z,15.30
2022-08-17T04:12:30.983Z,15.38
2022-08-17T04:15:00.811Z,17.05
2022-08-17T04:17:31.986Z,15.35
2022-08-17T04:20:01.399Z,16.63
2022-08-17T04:22:34.210Z,15.57
2022-08-17T04:25:19.312Z,16.33
2022-08-17T04:27:48.791Z,16.08
2022-08-17T04:30:18.926Z,16.17
2022-08-17T04:33:06.470Z,14.90
2022-08-17T04:35:40.849Z,15.68
2022-08-17T04:38:12.856Z,17.33
2022-08-17T04:40:55.031Z,16.30
2022-08-17T04:43:27.454Z,15.30
2022-08-17T04:46:02.516Z,17.05
2022-08-17T04:48:37.212Z,16.65
2022-08-17T04:51:16.988Z,18.17
2022-08-17T04:53:54.187Z,16.80
2022-08-17T04:56:25.952Z,15.98
2022-08-17T04:58:58.512Z,17.23
2022-08-17T05:01:31.245Z,17.30
2022-08-17T05:04:32.802Z,18.38
2022-08-17T05:07:01.451Z,16.05
2022-08-17T05:09:31.049Z,15.93
2022-08-17T05:12:04.092Z,16.42
2022-08-17T05:14:34.018Z,15.45
2022-08-17T05:17:07.034Z,16.15
2022-08-17T05:19:41.175Z,14.70
2022-08-17T05:22:10.619Z,14.00
2022-08-17T05:24:43.490Z,13.80
2022-08-17T05:27:23.481Z,13.63
2022-08-17T05:29:52.924Z,16.75
2022-08-17T05:32:38.185Z,15.90
2022-08-17T05:35:10.232Z,15.38
2022-08-17T05:37:42.405Z,14.85
2022-08-17T05:40:12.356Z,15.10
2022-08-17T05:42:44.144Z,18.05
2022-08-17T05:45:46.075Z,19.95
2022-08-17T05:48:07.911Z,18.13
2022-08-17T05:50:51.039Z,20.23
2022-08-17T05:53:51.077Z,20.58
2022-08-17T05:56:43.427Z,21.52
2022-08-17T05:59:26.689Z,19.95
2022-08-17T06:02:07.108Z,20.85
2022-08-17T06:05:02.521Z,22.88
2022-08-17T06:07:42.759Z,19.88
2022-08-17T06:11:05.579Z,22.55
2022-08-17T06:14:12.412Z,21.80
2022-08-17T06:16:49.085Z,21.73
2022-08-17T06:19:25.638Z,22.42
2022-08-17T06:21:57.513Z,26.15
2022-08-17T06:24:42.024Z,22.02
2022-08-17T06:27:33.211Z,24.48
2022-08-17T06:30:22.508Z,22.73
2022-08-17T06:32:53.690Z,22.83
2022-08-17T06:35:42.389Z,25.42
2022-08-17T06:38:38.221Z,25.30
2022-08-17T06:41:37.825Z,23.70
2022-08-17T06:44:43.132Z,26.13
2022-08-17T06:47:31.625Z,24.08
2022-08-17T06:50:11.772Z,24.55
2022-08-17T06:53:04.039Z,21.70
2022-08-17T06:56:09.600Z,21.10
2022-08-17T06:58:43.446Z,22.05
2022-08-17T07:01:18.025Z,21.42
2022-08-17T07:03:54.665Z,19.65
2022-08-17T07:06:30.559Z,18.70
2022-08-17T07:09:17.420Z,17.33
2022-08-17T07:12:02.612Z,17.45
2022-08-17T07:14:41.062Z,16.95
2022-08-17T07:17:17.361Z,17.35
2022-08-17T07:19:50.154Z,18.30
2022-08-17T07:22:25.553Z,17.08
2022-08-17T07:24:59.765Z,18.48
2022-08-17T07:27:40.867Z,18.05
2022-08-17T07:30:20.048Z,17.05
2022-08-17T07:33:20.263Z,17.98
2022-08-17T07:35:50.294Z,17.85
2022-08-17T07:38:25.282Z,17.23
2022-08-17T07:41:02.145Z,17.80
2022-08-17T07:43:52.430Z,18.88
2022-08-17T07:47:02.093Z,19.10
2022-08-17T07:49:34.170Z,17.73
2022-08-17T07:52:48.495Z,21.85
2022-08-17T07:55:29.456Z,19.83
2022-08-17T07:58:02.078Z,20.75
2022-08-17T08:00:33.660Z,19.58
2022-08-17T08:03:34.689Z,19.35
2022-08-17T08:06:05.392Z,19.35
2022-08-17T08:08:45.029Z,19.02
2022-08-17T08:11:30.777Z,18.23
2022-08-17T08:14:28.214Z,19.88
2022-08-17T08:17:01.999Z,20.05
2022-08-17T08:19:33.386Z,18.52
2022-08-17T08:22:13.100Z,19.70
2022-08-17T08:25:07.316Z,20.95
2022-08-17T08:27:45.804Z,20.05
2022-08-17T08:30:21.966Z,22.45
2022-08-17T08:33:17.318Z,20.90
2022-08-17T08:35:58.571Z,21.42
2022-08-17T08:38:54.961Z,20.13
2022-08-17T08:41:44.917Z,19.80
2022-08-17T08:44:59.702Z,21.17
2022-08-17T08:47:55.525Z,21.67
2022-08-17T08:50:38.265Z,22.38
2022-08-17T08:53:39.055Z,22.92
2022-08-17T08:56:36.670Z,24.80
2022-08-17T08:59:14.518Z,22.85
2022-08-17T09:02:05.099Z,22.98
2022-08-17T09:05:14.181Z,24.27
2022-08-17T09:08:12.963Z,23.50
2022-08-17T09:10:51.386Z,24.35
2022-08-17T09:13:29.736Z,22.15
2022-08-17T09:16:09.506Z,23.45
2022-08-17T09:19:01.044Z,21.35
2022-08-17T09:21:49.254Z,21.77
2022-08-17T09:24:34.619Z,21.70
2022-08-17T09:27:11.121Z,22.17
2022-08-17T09:29:46.004Z,20.40
2022-08-17T09:32:31.355Z,20.38
2022-08-17T09:35:08.083Z,22.25
2022-08-17T09:37:57.323Z,20.63
2022-08-17T09:40:42.144Z,20.10
2022-08-17T09:43:43.169Z,21.50
2022-08-17T09:46:25.191Z,19.55
2022-08-17T09:49:25.042Z,22.27
2022-08-17T09:52:01.181Z,20.55
2022-08-17T09:54:39.876Z,20.95
2022-08-17T09:57:29.173Z,20.10
2022-08-17T10:00:13.532Z,21.50
2022-08-17T10:03:01.627Z,21.90
2022-08-17T10:05:30.887Z,21.88
2022-08-17T10:08:09.736Z,21.83
2022-08-17T10:10:56.461Z,23.10
2022-08-17T10:14:02.281Z,23.17
2022-08-17T10:17:01.983Z,22.05
2022-08-17T10:19:44.281Z,23.63
2022-08-17T10:22:43.949Z,21.30
2022-08-17T10:25:42.937Z,23.15
2022-08-17T10:28:29.375Z,21.83
2022-08-17T10:34:20.037Z,20.55
2022-08-17T10:37:10.935Z,20.33
2022-08-17T10:39:58.548Z,21.48
2022-08-17T10:42:33.893Z,21.88
2022-08-17T10:45:44.270Z,25.10
2022-08-17T10:48:16.716Z,23.25
2022-08-17T10:50:49.717Z,23.38
2022-08-17T10:53:34.590Z,22.13
2022-08-17T10:56:17.529Z,24.38
2022-08-17T10:58:59.331Z,25.17
2022-08-17T11:01:31.661Z,23.48
2022-08-17T11:04:19.726Z,23.95
2022-08-17T11:07:08.794Z,22.13
2022-08-17T11:10:16.396Z,24.00
2022-08-17T11:12:48.934Z,23.08
2022-08-17T11:15:24.733Z,23.25
2022-08-17T11:18:16.016Z,25.13
2022-08-17T11:21:11.117Z,24.80
2022-08-17T11:24:10.600Z,24.80
2022-08-17T11:26:46.795Z,24.33
2022-08-17T11:29:59.517Z,24.75
2022-08-17T11:32:54.385Z,26.55
2022-08-17T11:35:24.551Z,24.75
2022-08-17T11:38:25.382Z,25.10
2022-08-17T11:41:13.117Z,24.30
2022-08-17T11:44:03.504Z,25.98
2022-08-17T11:47:20.094Z,23.77
2022-08-17T11:50:12.424Z,22.63
2022-08-17T11:52:48.533Z,24.45
2022-08-17T11:55:37.545Z,23.67
2022-08-17T11:58:28.475Z,22.52
2022-08-17T12:00:58.417Z,24.58
2022-08-17T12:03:34.063Z,23.88
2022-08-17T12:06:08.384Z,25.38
2022-08-17T12:08:43.781Z,24.55
2022-08-17T12:12:11.175Z,24.67
2022-08-17T12:15:07.884Z,25.23
2022-08-17T12:17:50.608Z,26.23
2022-08-17T12:20:37.596Z,25.75
2022-08-17T12:23:54.997Z,26.02
2022-08-17T12:26:30.336Z,27.25
2022-08-17T12:29:09.242Z,26.55
2022-08-17T12:31:51.169Z,26.23
2022-08-17T12:34:28.431Z,28.98
2022-08-17T12:37:04.029Z,27.15
2022-08-17T12:39:34.266Z,30.00
2022-08-17T12:42:04.704Z,30.50
2022-08-17T12:44:50.073Z,30.40
2022-08-17T12:47:23.149Z,29.70
2022-08-17T12:49:57.884Z,27.42
2022-08-17T12:52:33.587Z,28.40
2022-08-17T12:55:16.991Z,29.77
2022-08-17T12:57:51.329Z,29.45
2022-08-17T13:00:47.489Z,30.38
2022-08-17T13:03:24.667Z,31.15
2022-08-17T13:06:04.469Z,28.77
2022-08-17T13:08:43.845Z,29.95
2022-08-17T13:11:24.159Z,28.80
2022-08-17T13:13:57.132Z,30.35
2022-08-17T13:16:29.895Z,30.23
2022-08-17T13:19:20.293Z,30.42
2022-08-17T13:22:14.412Z,31.38
2022-08-17T13:24:55.718Z,30.50
2022-08-17T13:27:28.674Z,32.00
2022-08-17T13:30:01.805Z,29.52
2022-08-17T13:32:39.948Z,31.85
2022-08-17T13:35:50.097Z,32.67
2022-08-17T13:38:51.008Z,31.85
2022-08-17T13:41:38.939Z,32.15
2022-08-17T13:44:36.867Z,31.60
2022-08-17T13:47:17.112Z,32.97
2022-08-17T13:49:48.785Z,35.45
2022-08-17T13:52:43.751Z,33.33
2022-08-17T13:55:23.555Z,32.08
2022-08-17T13:58:06.878Z,31.60
2022-08-17T14:00:39.553Z,30.30
2022-08-17T14:05:38.358Z,29.63
2022-08-17T14:08:08.465Z,30.30
2022-08-17T14:10:38.063Z,29.92
2022-08-17T14:13:08.576Z,28.02
2022-08-17T14:15:56.021Z,28.23
2022-08-17T14:18:55.549Z,29.75
2022-08-17T14:21:16.261Z,31.13
2022-08-17T14:23:54.468Z,28.88
2022-08-17T14:26:24.792Z,28.98
2022-08-17T14:28:56.564Z,30.30
2022-08-17T14:31:27.663Z,29.15
2022-08-17T14:33:58.986Z,30.45
2022-08-17T14:36:28.368Z,28.75
2022-08-17T14:38:57.677Z,27.75
2022-08-17T14:41:27.426Z,27.63
2022-08-17T14:43:56.760Z,27.45
2022-08-17T14:46:26.488Z,28.80
2022-08-17T14:48:57.469Z,27.05
2022-08-17T14:51:27.659Z,28.30
2022-08-17T14:53:57.550Z,27.17
2022-08-17T14:56:28.324Z,24.80
2022-08-17T14:59:05.008Z,27.67
2022-08-17T15:01:36.920Z,27.90
2022-08-17T15:06:35.663Z,28.23
2022-08-17T15:09:05.041Z,27.70
2022-08-17T15:11:35.504Z,27.55
2022-08-17T15:14:04.924Z,27.15
2022-08-17T15:16:36.063Z,25.40
2022-08-17T15:19:07.201Z,23.50
2022-08-17T15:21:38.508Z,28.93
2022-08-17T15:24:08.825Z,28.52
2022-08-17T15:26:39.128Z,27.83
2022-08-17T15:29:11.961Z,28.10
2022-08-17T15:31:41.410Z,26.88
2022-08-17T15:34:10.770Z,27.65
2022-08-17T15:36:43.866Z,26.52
2022-08-17T15:39:19.667Z,27.95
2022-08-17T15:41:58.502Z,27.00
2022-08-17T15:44:32.483Z,27.85
2022-08-17T15:47:04.387Z,26.88
2022-08-17T15:49:33.841Z,27.17
2022-08-17T15:52:03.173Z,27.02
2022-08-17T15:54:34.756Z,23.75
2022-08-17T15:57:05.414Z,25.17
2022-08-17T15:59:34.890Z,24.80
2022-08-17T16:03:11.150Z,22.60
2022-08-17T16:04:53.884Z,25.00
2022-08-17T16:07:26.743Z,23.23
2022-08-17T16:09:56.337Z,24.75
2022-08-17T16:12:25.884Z,24.20
2022-08-17T16:14:55.859Z,24.05
2022-08-17T16:17:38.851Z,22.27
2022-08-17T16:20:19.621Z,25.60
2022-08-17T16:22:52.698Z,26.65
2022-08-17T16:25:52.270Z,23.13
2022-08-17T16:30:47.207Z,24.10
2022-08-17T16:33:16.848Z,24.30
2022-08-17T16:35:46.207Z,23.90
2022-08-17T16:38:15.573Z,26.00
2022-08-17T16:40:45.005Z,28.67
2022-08-17T16:43:17.392Z,27.02
2022-08-17T16:45:51.803Z,25.35
2022-08-17T16:48:21.581Z,25.40
2022-08-17T16:51:02.853Z,25.88
2022-08-17T16:53:33.185Z,24.50
2022-08-17T16:56:03.648Z,24.58
2022-08-17T16:58:33.002Z,25.27
2022-08-17T17:01:02.483Z,26.30
2022-08-17T17:03:33.596Z,23.98
2022-08-17T17:06:27.897Z,24.38
2022-08-17T17:09:04.421Z,23.17
2022-08-17T17:11:46.391Z,24.20
2022-08-17T17:14:25.409Z,24.75
2022-08-17T17:17:28.066Z,23.88
2022-08-17T17:20:21.726Z,24.55
2022-08-17T17:22:54.853Z,25.27
2022-08-17T17:25:41.051Z,22.98
2022-08-17T17:28:25.002Z,24.55
2022-08-17T17:30:54.370Z,24.95
2022-08-17T17:33:34.873Z,26.70
2022-08-17T17:36:24.373Z,24.85
2022-08-17T17:39:17.057Z,25.30
2022-08-17T17:41:51.575Z,28.23
2022-08-17T17:44:28.773Z,24.58
2022-08-17T17:47:01.955Z,27.88
2022-08-17T17:49:49.965Z,29.00
2022-08-17T17:52:32.407Z,28.00
2022-08-17T17:55:22.041Z,28.48
2022-08-17T17:58:05.501Z,28.77
2022-08-17T18:00:43.427Z,27.17
2022-08-17T18:03:25.185Z,26.40
2022-08-17T18:06:09.801Z,27.17
2022-08-17T18:09:06.244Z,28.60
2022-08-17T18:11:48.670Z,27.27
2022-08-17T18:14:28.805Z,26.17
2022-08-17T18:17:01.296Z,27.85
2022-08-17T18:19:33.276Z,28.45
2022-08-17T18:24:48.627Z,28.98
2022-08-17T18:27:21.009Z,28.80
2022-08-17T18:29:50.908Z,28.52
2022-08-17T18:32:26.544Z,28.33
2022-08-17T18:35:01.276Z,27.08
2022-08-17T18:37:38.856Z,26.52
2022-08-17T18:40:36.156Z,28.27
2022-08-17T18:43:14.071Z,28.40
2022-08-17T18:45:53.474Z,26.77
2022-08-17T18:48:25.534Z,27.35
2022-08-17T18:53:46.844Z,26.92
2022-08-17T18:56:35.767Z,26.25
2022-08-17T18:59:36.349Z,26.38
2022-08-17T19:05:27.787Z,26.95
2022-08-17T19:08:20.516Z,27.58
2022-08-17T19:10:58.406Z,29.17
2022-08-17T19:13:37.056Z,27.90
2022-08-17T19:16:24.394Z,28.80
2022-08-17T19:19:07.892Z,30.23
2022-08-17T19:21:45.371Z,29.38
2022-08-17T19:24:19.933Z,29.90
2022-08-17T19:26:57.791Z,28.48
2022-08-17T19:29:48.348Z,29.42
2022-08-17T19:32:27.452Z,28.60
2022-08-17T19:34:58.420Z,27.77
2022-08-17T19:37:56.508Z,26.55
2022-08-17T19:40:52.959Z,28.80
2022-08-17T19:43:48.124Z,28.65
2022-08-17T19:46:39.330Z,27.77
2022-08-17T19:49:46.709Z,27.15
2022-08-17T19:52:37.905Z,30.10
2022-08-17T19:55:36.127Z,28.70
2022-08-17T19:58:18.133Z,28.17
2022-08-17T20:03:30.253Z,28.02
2022-08-17T20:06:19.095Z,27.98
2022-08-17T20:09:18.688Z,26.80
2022-08-17T20:11:58.748Z,27.00
2022-08-17T20:14:39.312Z,27.92
2022-08-17T20:17:23.789Z,29.25
2022-08-17T20:19:58.359Z,28.80
2022-08-17T20:22:49.643Z,28.35
2022-08-17T20:25:50.600Z,29.83
2022-08-17T20:28:27.962Z,30.75
2022-08-17T20:30:57.977Z,32.42
2022-08-17T20:33:40.630Z,30.73
2022-08-17T20:36:26.235Z,30.00
2022-08-17T20:38:59.326Z,29.05
2022-08-17T20:41:31.019Z,29.13
2022-08-17T20:44:00.561Z,28.98
2022-08-17T20:46:47.468Z,27.83
2022-08-17T20:49:19.971Z,26.85
2022-08-17T20:52:01.264Z,27.67
2022-08-17T20:54:53.833Z,30.23
2022-08-17T20:57:35.376Z,28.10
2022-08-17T21:00:18.294Z,31.73
2022-08-17T21:03:22.766Z,29.67
2022-08-17T21:05:59.895Z,31.50
2022-08-17T21:08:43.762Z,32.20
2022-08-17T21:12:00.042Z,32.83
2022-08-17T21:14:48.131Z,31.35
2022-08-17T21:18:06.671Z,30.02
2022-08-17T21:21:07.073Z,31.60
2022-08-17T21:23:54.584Z,30.55
2022-08-17T21:26:35.555Z,32.50
2022-08-17T21:29:29.670Z,28.58
2022-08-17T21:32:06.582Z,29.52
2022-08-17T21:34:43.984Z,30.47
2022-08-17T21:37:23.380Z,29.73
2022-08-17T21:40:21.461Z,30.95
2022-08-17T21:42:55.779Z,30.63
2022-08-17T21:45:41.675Z,29.75
2022-08-17T21:48:21.618Z,29.27
2022-08-17T21:51:12.333Z,29.38
2022-08-17T21:53:48.256Z,28.52
2022-08-17T21:56:28.391Z,30.45
2022-08-17T21:59:24.525Z,28.63
2022-08-17T22:02:05.727Z,30.52
2022-08-17T22:04:43.525Z,30.98
2022-08-17T22:07:16.118Z,30.77
2022-08-17T22:09:48.823Z,30.58
2022-08-17T22:12:21.148Z,30.60
2022-08-17T22:14:56.421Z,29.08
2022-08-17T22:17:36.576Z,29.88
2022-08-17T22:20:17.617Z,27.30
2022-08-17T22:23:05.492Z,29.15
2022-08-17T22:26:00.178Z,31.20
2022-08-17T22:28:53.380Z,29.30
2022-08-17T22:31:32.923Z,30.00
2022-08-17T22:34:02.364Z,28.48
2022-08-17T22:36:33.644Z,28.92
2022-08-17T22:39:26.090Z,28.57
2022-08-17T22:44:48.022Z,28.95
2022-08-17T22:47:18.837Z,29.38
2022-08-17T22:49:57.828Z,31.52
2022-08-17T22:53:00.029Z,32.35
2022-08-17T22:55:44.664Z,30.58
2022-08-17T22:58:29.540Z,31.10
2022-08-17T23:01:00.136Z,29.88
2022-08-17T23:03:30.287Z,30.98
2022-08-17T23:06:12.510Z,31.73
2022-08-17T23:08:48.873Z,30.70
2022-08-17T23:11:18.766Z,27.15
2022-08-17T23:13:48.480Z,30.35
2022-08-17T23:16:17.924Z,30.15
2022-08-17T23:18:50.876Z,31.05
2022-08-17T23:21:27.412Z,31.65
2022-08-17T23:23:58.451Z,31.52
2022-08-17T23:26:27.882Z,31.02
2022-08-17T23:28:57.324Z,32.75
2022-08-17T23:31:26.928Z,31.05
2022-08-17T23:33:57.752Z,29.50
2022-08-17T23:36:27.168Z,29.80
2022-08-17T23:38:57.900Z,31.58
2022-08-17T23:41:31.901Z,29.92
2022-08-17T23:44:03.023Z,30.98
2022-08-17T23:46:32.887Z,33.40
2022-08-17T23:49:03.304Z,32.50
2022-08-17T23:51:42.617Z,31.17
2022-08-17T23:54:34.124Z,31.05
2022-08-17T23:57:09.208Z,30.85
2022-08-17T23:59:39.610Z,30.65
